Terminal Aerodrome Forecast
Issued by NWS

Home | Current Version | Previous Version | Graphics & Text | Print | Product List | Glossary Off
Versions: 1 2 3 4 5 6 7 8 9 10 11 12 13 14 15 16 17 18 19 20 21 22 23

000
FTUS43 KICT 201741
TAFRSL
TAF
KRSL 201741Z 2018/2118 21009KT P6SM SCT250
     FM210300 21009KT P6SM BKN100
     FM210800 20008KT 4SM BR BKN015
      TEMPO 2108/2112 2SM BR BKN008
     FM211200 18012KT 4SM BR BKN015=

USA.gov is the U.S. government's official web portal to all federal, state and local government web resources and services.